Time;durP1;ratioP1;P1;durP2;ratioP2;P2;SDS_P1;SDS_P2;PMS_P1;PMS_P2;Temp;Humidity;BMP_temperature;BMP_pressure;BME280_temperature;BME280_humidity;BME280_pressure;Samples;Min_cycle;Max_cycle;Signal;HPM_P1;HPM_P2
2024/04/03 00:00:47;;;;;;;17.05;6.68;;;8.30;99.90;;;;;;5048744;28;20120;-82
2024/04/03 00:03:13;;;;;;;17.17;6.28;;;8.30;99.90;;;;;;5054611;28;20454;-82
2024/04/03 00:05:38;;;;;;;13.73;6.50;;;8.30;99.90;;;;;;5032265;28;20056;-81
2024/04/03 00:08:05;;;;;;;15.82;6.32;;;8.30;99.90;;;;;;5056628;28;20049;-82
2024/04/03 00:10:31;;;;;;;15.90;7.13;;;8.30;99.90;;;;;;5034710;28;20083;-81
2024/04/03 00:12:57;;;;;;;16.17;8.15;;;8.30;99.90;;;;;;5044085;28;20412;-82
2024/04/03 00:15:23;;;;;;;12.70;6.18;;;8.40;99.90;;;;;;5046564;28;20040;-82
2024/04/03 00:17:53;;;;;;;22.90;7.65;;;8.40;99.90;;;;;;5053996;28;20037;-79
2024/04/03 00:20:22;;;;;;;20.00;8.10;;;8.40;99.90;;;;;;5067913;28;20034;-82
2024/04/03 00:22:48;;;;;;;23.13;8.10;;;8.40;99.90;;;;;;5043759;28;20037;-82
2024/04/03 00:25:14;;;;;;;20.60;7.38;;;8.40;99.90;;;;;;5067364;28;20115;-78
2024/04/03 00:27:39;;;;;;;18.02;7.15;;;8.30;99.90;;;;;;5068482;28;20041;-82
2024/04/03 00:30:05;;;;;;;21.95;7.65;;;8.40;99.90;;;;;;5041573;28;20045;-82
2024/04/03 00:32:31;;;;;;;17.55;7.50;;;8.40;99.90;;;;;;5045141;28;20036;-81
2024/04/03 00:34:57;;;;;;;19.60;7.70;;;8.40;99.90;;;;;;5032502;28;20048;-82
2024/04/03 00:37:22;;;;;;;17.27;8.32;;;8.40;99.90;;;;;;5060368;28;20037;-82
2024/04/03 00:39:54;;;;;;;21.10;8.05;;;8.40;99.90;;;;;;5060033;28;20117;-82
2024/04/03 00:42:20;;;;;;;23.40;8.40;;;8.30;99.90;;;;;;5032695;28;20026;-82
2024/04/03 00:44:48;;;;;;;23.70;10.75;;;8.30;99.90;;;;;;5031738;28;20043;-81
2024/04/03 00:47:15;;;;;;;28.27;9.38;;;8.30;99.90;;;;;;5042765;28;20045;-82
2024/04/03 00:49:42;;;;;;;23.15;8.52;;;8.30;99.90;;;;;;5067777;28;20029;-82
2024/04/03 00:52:08;;;;;;;35.13;10.13;;;8.30;99.90;;;;;;5051027;28;20492;-82
2024/04/03 00:54:34;;;;;;;27.08;8.68;;;8.30;99.90;;;;;;5046125;28;20091;-80
2024/04/03 00:56:59;;;;;;;22.55;8.93;;;8.30;99.90;;;;;;5065097;28;20073;-82
2024/04/03 00:59:27;;;;;;;28.30;9.52;;;8.30;99.90;;;;;;5040907;28;20367;-82
2024/04/03 01:01:53;;;;;;;23.95;9.00;;;8.30;99.90;;;;;;5048401;28;20151;-82
2024/04/03 01:04:19;;;;;;;27.92;9.25;;;8.30;99.90;;;;;;5046031;28;20045;-81
2024/04/03 01:06:44;;;;;;;24.73;8.32;;;8.30;99.90;;;;;;5030196;28;20116;-81
2024/04/03 01:09:10;;;;;;;28.90;8.93;;;8.30;99.90;;;;;;5032912;28;20037;-81
2024/04/03 01:11:36;;;;;;;29.48;8.77;;;8.80;99.90;;;;;;5045498;28;20532;-82
2024/04/03 01:14:01;;;;;;;29.63;8.75;;;8.30;99.90;;;;;;5036825;28;20127;-82
2024/04/03 01:16:27;;;;;;;27.33;8.32;;;8.30;99.90;;;;;;5048205;28;20033;-82
2024/04/03 01:18:52;;;;;;;24.45;8.25;;;8.30;99.90;;;;;;5050259;28;20040;-80
2024/04/03 01:21:18;;;;;;;23.73;7.78;;;8.30;99.90;;;;;;5050205;28;20051;-82
2024/04/03 01:23:43;;;;;;;17.58;7.28;;;8.30;99.90;;;;;;5039253;28;20187;-82
2024/04/03 01:26:09;;;;;;;26.63;8.27;;;8.30;99.90;;;;;;5049008;28;20041;-82
2024/04/03 01:28:35;;;;;;;21.10;7.38;;;8.30;99.90;;;;;;5051399;28;20111;-81
2024/04/03 01:31:00;;;;;;;26.67;8.23;;;8.40;99.90;;;;;;5065551;28;20036;-82
2024/04/03 01:33:26;;;;;;;21.63;8.35;;;8.40;99.90;;;;;;5034650;28;20106;-81
2024/04/03 01:35:51;;;;;;;33.38;8.80;;;8.40;99.90;;;;;;5021339;28;20515;-81
2024/04/03 01:38:17;;;;;;;29.30;8.73;;;8.40;99.90;;;;;;5060632;28;20041;-81
2024/04/03 01:40:42;;;;;;;30.35;8.85;;;8.30;99.90;;;;;;5059863;28;20084;-82
2024/04/03 01:43:08;;;;;;;29.13;9.20;;;8.30;99.90;;;;;;5032269;28;20129;-82
2024/04/03 01:45:34;;;;;;;33.17;8.57;;;8.20;99.90;;;;;;5044713;28;20045;-81
2024/04/03 01:47:59;;;;;;;33.38;9.73;;;8.20;99.90;;;;;;5049838;28;20053;-81
2024/04/03 01:50:38;;;;;;;31.63;8.90;;;8.20;99.90;;;;;;5066503;28;20040;-80
2024/04/03 01:53:04;;;;;;;31.55;8.52;;;8.20;99.90;;;;;;5064547;28;20067;-81
2024/04/03 01:55:30;;;;;;;30.80;8.52;;;8.20;99.90;;;;;;5044143;28;20066;-81
2024/04/03 01:57:56;;;;;;;33.65;9.30;;;8.20;99.90;;;;;;5066604;28;20491;-82
2024/04/03 02:00:22;;;;;;;29.08;8.98;;;8.20;99.90;;;;;;5050114;28;20087;-81
2024/04/03 02:02:47;;;;;;;38.85;9.30;;;8.20;99.90;;;;;;5042481;28;20037;-82
2024/04/03 02:05:13;;;;;;;26.83;7.68;;;8.10;99.90;;;;;;5041798;28;20051;-81
2024/04/03 02:07:38;;;;;;;39.00;10.30;;;8.10;99.90;;;;;;5054085;28;20045;-81
2024/04/03 02:10:05;;;;;;;31.48;9.50;;;8.20;99.90;;;;;;5042179;28;20037;-81
2024/04/03 02:12:31;;;;;;;26.65;8.98;;;8.10;99.90;;;;;;5068883;28;20043;-80
2024/04/03 02:14:56;;;;;;;30.85;9.45;;;8.10;99.90;;;;;;5068938;28;20051;-81
2024/04/03 02:17:22;;;;;;;25.38;8.57;;;8.10;99.90;;;;;;5057632;28;20036;-82
2024/04/03 02:19:48;;;;;;;27.25;9.35;;;8.10;99.90;;;;;;5056558;28;20065;-81
2024/04/03 02:22:13;;;;;;;31.23;8.52;;;8.10;99.90;;;;;;5071911;28;20044;-81
2024/04/03 02:24:39;;;;;;;29.00;8.25;;;8.10;99.90;;;;;;5039864;28;20052;-80
2024/04/03 02:27:04;;;;;;;26.73;8.40;;;8.10;99.90;;;;;;5057948;28;20781;-79
2024/04/03 02:29:30;;;;;;;24.10;8.38;;;8.10;99.90;;;;;;5047710;28;20390;-81
2024/04/03 02:31:56;;;;;;;25.02;7.45;;;8.00;99.90;;;;;;5056143;28;20087;-81
2024/04/03 02:34:21;;;;;;;27.20;7.50;;;8.00;99.90;;;;;;5033815;28;20509;-81
2024/04/03 02:36:47;;;;;;;26.08;7.00;;;8.00;99.90;;;;;;5051725;28;20103;-80
2024/04/03 02:39:12;;;;;;;25.77;7.38;;;8.00;99.90;;;;;;5041163;28;20037;-82
2024/04/03 02:41:38;;;;;;;26.70;9.35;;;8.00;99.90;;;;;;5047902;28;20048;-81
2024/04/03 02:44:03;;;;;;;26.80;6.75;;;8.00;99.90;;;;;;5041746;28;20072;-81
2024/04/03 02:46:29;;;;;;;25.50;7.93;;;8.00;99.90;;;;;;5067191;28;20078;-81
2024/04/03 02:48:55;;;;;;;23.13;7.07;;;8.00;99.90;;;;;;5066676;28;20045;-81
2024/04/03 02:51:23;;;;;;;23.90;6.85;;;7.90;99.90;;;;;;5022388;28;20056;-81
2024/04/03 02:53:48;;;;;;;24.63;8.75;;;8.00;99.90;;;;;;5038082;28;20427;-81
2024/04/03 02:56:15;;;;;;;26.17;7.63;;;7.90;99.90;;;;;;5049301;28;20120;-81
2024/04/03 02:58:40;;;;;;;19.70;7.28;;;8.00;99.90;;;;;;5059737;28;20388;-81
2024/04/03 03:01:08;;;;;;;23.77;7.47;;;8.00;99.90;;;;;;5047281;28;20033;-81
2024/04/03 03:03:34;;;;;;;19.77;6.88;;;8.00;99.90;;;;;;5054878;28;20140;-82
2024/04/03 03:06:01;;;;;;;22.50;7.70;;;7.90;99.90;;;;;;5049035;28;20064;-82
2024/04/03 03:08:28;;;;;;;27.45;7.43;;;7.90;99.90;;;;;;5048416;28;20041;-82
2024/04/03 03:10:54;;;;;;;25.63;8.57;;;8.00;99.90;;;;;;5057723;28;20037;-82
2024/04/03 03:13:21;;;;;;;21.88;7.55;;;7.90;99.90;;;;;;5062226;28;20069;-82
2024/04/03 03:15:58;;;;;;;23.98;8.20;;;7.90;99.90;;;;;;5046031;28;20041;-83
2024/04/03 03:18:33;;;;;;;25.90;8.88;;;7.90;99.90;;;;;;5063569;28;20452;-83
2024/04/03 03:20:58;;;;;;;26.02;7.97;;;7.90;99.90;;;;;;5042313;28;20045;-82
2024/04/03 03:23:24;;;;;;;21.98;8.10;;;7.90;99.90;;;;;;5050381;28;20088;-84
2024/04/03 03:25:51;;;;;;;24.73;8.82;;;7.90;99.90;;;;;;5051734;28;20037;-84
2024/04/03 03:28:18;;;;;;;23.83;8.20;;;7.90;99.90;;;;;;5068279;28;20037;-84
2024/04/03 03:30:47;;;;;;;23.65;7.50;;;7.90;99.90;;;;;;5051699;28;20041;-83
2024/04/03 03:33:13;;;;;;;31.63;8.15;;;7.90;99.90;;;;;;5047308;28;20041;-84
2024/04/03 03:35:39;;;;;;;26.10;8.20;;;7.90;99.90;;;;;;5058528;28;20044;-84
2024/04/03 03:38:04;;;;;;;25.60;8.77;;;7.90;99.90;;;;;;5044796;28;20041;-84
2024/04/03 03:40:32;;;;;;;22.60;8.15;;;7.80;99.90;;;;;;5045937;28;20099;-82
2024/04/03 03:42:57;;;;;;;31.65;9.10;;;7.90;99.90;;;;;;5047690;28;20092;-83
2024/04/03 03:45:23;;;;;;;22.98;8.85;;;7.80;99.90;;;;;;5049746;28;20037;-84
2024/04/03 03:47:49;;;;;;;27.45;9.18;;;7.80;99.90;;;;;;5049710;28;20045;-82
2024/04/03 03:52:59;;;;;;;;;;;7.80;99.90;;;;;;5050258;28;20634;-84
2024/04/03 03:55:29;;;;;;;24.02;8.15;;;7.80;99.90;;;;;;5053645;28;19928;-84
2024/04/03 03:57:54;;;;;;;26.92;9.30;;;7.80;99.90;;;;;;5049957;28;20049;-83
2024/04/03 04:00:20;;;;;;;29.98;9.55;;;7.80;99.90;;;;;;5049742;28;20041;-82
2024/04/03 04:02:46;;;;;;;27.95;9.90;;;7.80;99.90;;;;;;5048623;28;20038;-86
2024/04/03 04:05:11;;;;;;;37.97;10.38;;;7.80;99.90;;;;;;5039397;28;20099;-83
2024/04/03 04:07:37;;;;;;;38.53;10.98;;;7.80;99.90;;;;;;5058479;28;20064;-85
2024/04/03 04:10:03;;;;;;;28.20;9.75;;;7.90;99.90;;;;;;5071134;28;20128;-82
2024/04/03 04:12:29;;;;;;;30.02;10.95;;;7.80;99.90;;;;;;5070126;28;20037;-85
2024/04/03 04:14:55;;;;;;;31.08;10.68;;;7.90;99.90;;;;;;5069636;28;20045;-82
2024/04/03 04:17:23;;;;;;;30.77;10.50;;;8.10;99.90;;;;;;5068039;28;20041;-84
2024/04/03 04:19:50;;;;;;;32.60;10.50;;;7.80;99.90;;;;;;5053414;28;20045;-85
2024/04/03 04:22:16;;;;;;;28.08;11.45;;;7.80;99.90;;;;;;5054800;28;20056;-86
2024/04/03 04:24:44;;;;;;;33.10;11.60;;;7.80;99.90;;;;;;5072007;28;20049;-86
2024/04/03 04:27:11;;;;;;;29.85;12.15;;;7.80;99.90;;;;;;5088412;28;20052;-85
2024/04/03 04:29:37;;;;;;;23.85;10.98;;;7.90;99.90;;;;;;5071610;28;20061;-84
2024/04/03 04:32:07;;;;;;;37.33;11.82;;;7.90;99.90;;;;;;5055488;28;20089;-86
2024/04/03 04:34:32;;;;;;;33.58;12.05;;;7.90;99.90;;;;;;5055433;28;20025;-84
2024/04/03 04:36:58;;;;;;;29.88;12.00;;;7.90;99.90;;;;;;5055866;28;20025;-86
2024/04/03 04:39:24;;;;;;;33.58;10.82;;;7.90;99.90;;;;;;5057036;28;20114;-84
2024/04/03 04:41:53;;;;;;;33.10;11.73;;;8.00;99.90;;;;;;5055097;28;20097;-86
2024/04/03 04:44:19;;;;;;;30.60;12.23;;;7.90;99.90;;;;;;5054525;28;20555;-87
2024/04/03 04:46:49;;;;;;;33.88;12.95;;;7.90;99.90;;;;;;5086397;28;20060;-86
2024/04/03 04:49:19;;;;;;;29.50;12.82;;;8.00;99.90;;;;;;5056096;28;20045;-87
2024/04/03 04:51:45;;;;;;;34.95;14.00;;;7.90;99.90;;;;;;5089739;28;20118;-86
2024/04/03 04:54:11;;;;;;;38.22;13.52;;;8.00;99.90;;;;;;5059115;28;20017;-85
2024/04/03 04:56:38;;;;;;;31.83;14.35;;;8.00;99.90;;;;;;5057677;28;20048;-86
2024/04/03 04:59:03;;;;;;;42.10;16.17;;;8.00;99.90;;;;;;5062887;28;20037;-86
2024/04/03 05:01:33;;;;;;;40.85;15.43;;;8.00;99.90;;;;;;5063522;28;20028;-87
2024/04/03 05:04:02;;;;;;;34.13;15.38;;;8.10;99.90;;;;;;5065967;28;20049;-87
2024/04/03 05:06:27;;;;;;;37.28;15.48;;;7.90;99.90;;;;;;5073286;28;20065;-86
2024/04/03 05:08:53;;;;;;;33.00;14.95;;;8.00;99.90;;;;;;5056607;28;20041;-87
2024/04/03 05:11:19;;;;;;;39.70;16.27;;;8.00;99.90;;;;;;5072328;28;20032;-81
2024/04/03 05:13:45;;;;;;;31.45;17.08;;;8.00;99.90;;;;;;5055686;28;20056;-86
2024/04/03 05:16:12;;;;;;;36.70;15.35;;;8.00;99.90;;;;;;5086887;28;20024;-85
2024/04/03 05:18:39;;;;;;;36.83;15.85;;;8.00;99.90;;;;;;5072050;28;20045;-86
2024/04/03 05:21:05;;;;;;;28.17;16.20;;;8.00;99.90;;;;;;5037428;28;20030;-86
2024/04/03 05:23:31;;;;;;;42.25;16.63;;;8.00;99.90;;;;;;5054478;28;20040;-86
2024/04/03 05:26:04;;;;;;;34.10;16.77;;;9.00;99.90;;;;;;5054424;28;20025;-84
2024/04/03 05:28:32;;;;;;;40.60;16.77;;;8.00;99.90;;;;;;5049517;28;20042;-83
2024/04/03 05:31:11;;;;;;;38.03;17.73;;;8.00;99.90;;;;;;5063600;28;20033;-81
2024/04/03 05:33:40;;;;;;;40.50;16.27;;;8.00;99.90;;;;;;5045385;28;20120;-83
2024/04/03 05:36:07;;;;;;;33.47;15.20;;;8.00;99.90;;;;;;5065137;28;20094;-84
2024/04/03 05:38:33;;;;;;;33.03;15.88;;;8.00;99.90;;;;;;5066951;28;20033;-82
2024/04/03 05:40:59;;;;;;;41.13;17.15;;;8.00;99.90;;;;;;5068009;28;20053;-84
2024/04/03 05:43:26;;;;;;;38.75;17.33;;;9.10;99.90;;;;;;5064391;28;20084;-83
2024/04/03 05:45:53;;;;;;;36.40;18.33;;;8.00;99.90;;;;;;5048007;28;20040;-83
2024/04/03 05:48:20;;;;;;;41.60;18.15;;;8.00;99.90;;;;;;5079296;28;20041;-85
2024/04/03 05:50:46;;;;;;;38.50;16.10;;;8.00;99.90;;;;;;5045495;28;20052;-85
2024/04/03 05:53:12;;;;;;;36.78;17.05;;;8.00;99.90;;;;;;5045894;28;20025;-84
2024/04/03 05:55:38;;;;;;;40.20;17.65;;;8.10;99.90;;;;;;5062143;28;20111;-81
2024/04/03 05:58:03;;;;;;;40.80;16.95;;;8.10;99.90;;;;;;5063161;28;20037;-83
2024/04/03 06:00:29;;;;;;;40.47;17.10;;;8.10;99.90;;;;;;5048500;28;20100;-84
2024/04/03 06:02:55;;;;;;;38.45;16.73;;;8.10;99.90;;;;;;5072450;28;20044;-83
2024/04/03 06:05:20;;;;;;;37.78;17.55;;;8.10;99.90;;;;;;5046698;28;20033;-82
2024/04/03 06:07:47;;;;;;;37.53;17.88;;;8.10;99.90;;;;;;5048306;28;20548;-85
2024/04/03 06:10:13;;;;;;;35.85;17.42;;;8.10;99.90;;;;;;5051180;28;20033;-84
2024/04/03 06:12:39;;;;;;;47.50;18.92;;;8.10;99.90;;;;;;5051311;28;20041;-87
2024/04/03 06:15:06;;;;;;;35.15;17.73;;;8.10;99.90;;;;;;5048238;28;20179;-86
2024/04/03 06:17:32;;;;;;;35.55;17.85;;;8.10;99.90;;;;;;5065386;28;20048;-84
2024/04/03 06:19:58;;;;;;;38.95;18.48;;;9.40;99.90;;;;;;5064481;28;20045;-85
2024/04/03 06:22:24;;;;;;;38.67;17.95;;;7.80;99.90;;;;;;5048633;28;20033;-84
2024/04/03 06:24:49;;;;;;;33.28;16.92;;;8.00;99.90;;;;;;5047415;28;20076;-85
2024/04/03 06:27:15;;;;;;;39.40;16.88;;;8.20;99.90;;;;;;5047589;28;20135;-84
2024/04/03 06:29:41;;;;;;;38.88;17.23;;;8.20;99.90;;;;;;5047874;28;20097;-81
2024/04/03 06:32:06;;;;;;;35.95;17.40;;;8.20;99.90;;;;;;5048680;28;20044;-86
2024/04/03 06:34:32;;;;;;;34.63;16.85;;;8.20;99.90;;;;;;5045909;28;20037;-83
2024/04/03 06:36:58;;;;;;;31.17;15.95;;;8.20;99.90;;;;;;5060699;28;20037;-84
2024/04/03 06:39:24;;;;;;;30.55;16.15;;;8.30;99.90;;;;;;5063700;28;20041;-85
2024/04/03 06:41:50;;;;;;;34.65;15.63;;;8.30;99.90;;;;;;5045432;28;20053;-85
2024/04/03 06:44:15;;;;;;;30.80;16.85;;;8.30;99.90;;;;;;5046851;28;20075;-82
2024/04/03 06:46:41;;;;;;;35.03;16.17;;;8.30;99.90;;;;;;5047416;28;20045;-82
2024/04/03 06:49:11;;;;;;;33.10;15.48;;;8.30;99.90;;;;;;5048290;28;20029;-86
2024/04/03 06:51:37;;;;;;;29.40;15.00;;;8.30;99.90;;;;;;5050392;28;20049;-85
2024/04/03 06:54:03;;;;;;;33.45;15.30;;;8.40;99.90;;;;;;5033137;28;20030;-83
2024/04/03 06:56:32;;;;;;;36.63;16.35;;;8.80;99.90;;;;;;5071799;28;20050;-82
2024/04/03 06:58:58;;;;;;;38.28;18.15;;;8.40;99.90;;;;;;5065468;28;20037;-86
2024/04/03 07:01:23;;;;;;;31.27;15.75;;;8.40;99.90;;;;;;5064887;28;20083;-81
2024/04/03 07:03:51;;;;;;;33.13;16.02;;;8.40;99.90;;;;;;5047924;28;20056;-83
2024/04/03 07:06:17;;;;;;;38.33;17.05;;;8.40;99.90;;;;;;5047764;28;20036;-83
2024/04/03 07:08:43;;;;;;;30.48;15.27;;;8.50;99.90;;;;;;5063639;28;20068;-83
2024/04/03 07:11:08;;;;;;;32.60;16.42;;;9.50;99.90;;;;;;5063108;28;20033;-84
2024/04/03 07:13:34;;;;;;;30.42;15.98;;;8.50;99.90;;;;;;5046195;28;20053;-80
2024/04/03 07:16:00;;;;;;;30.52;16.13;;;8.60;99.90;;;;;;5029587;28;20048;-82
2024/04/03 07:18:25;;;;;;;29.92;16.30;;;8.60;99.90;;;;;;5049703;28;20064;-83
2024/04/03 07:20:58;;;;;;;33.17;17.17;;;8.60;99.90;;;;;;5065900;28;20076;-82
2024/04/03 07:23:27;;;;;;;32.67;16.73;;;8.60;99.90;;;;;;5051753;28;20047;-81
2024/04/03 07:25:55;;;;;;;28.15;15.50;;;8.70;99.90;;;;;;5056921;28;20065;-84
2024/04/03 07:28:21;;;;;;;30.85;16.85;;;8.70;99.90;;;;;;5040303;28;20120;-82
2024/04/03 07:30:46;;;;;;;36.90;17.70;;;8.80;99.90;;;;;;5051538;28;20045;-83
2024/04/03 07:33:12;;;;;;;31.88;17.23;;;9.40;99.90;;;;;;5053211;28;20052;-84
2024/04/03 07:35:38;;;;;;;32.45;16.10;;;8.80;99.90;;;;;;5052727;28;20044;-82
2024/04/03 07:38:04;;;;;;;31.80;16.50;;;8.90;99.90;;;;;;5072109;28;20052;-85
2024/04/03 07:40:30;;;;;;;29.80;15.95;;;9.00;99.90;;;;;;5051599;28;20071;-83
2024/04/03 07:42:56;;;;;;;30.77;16.20;;;9.00;99.90;;;;;;5082717;28;20045;-82
2024/04/03 07:45:22;;;;;;;28.98;15.50;;;10.00;99.90;;;;;;5055986;28;20096;-82
2024/04/03 07:47:48;;;;;;;28.50;16.33;;;9.10;99.90;;;;;;5049877;28;20033;-82
2024/04/03 07:50:15;;;;;;;31.05;15.80;;;9.10;99.90;;;;;;5054257;28;20033;-83
2024/04/03 07:52:41;;;;;;;30.48;16.20;;;9.20;99.90;;;;;;5046501;28;20037;-82
2024/04/03 07:55:14;;;;;;;26.70;15.07;;;9.10;99.90;;;;;;5061876;28;20093;-82
2024/04/03 07:57:41;;;;;;;26.92;14.57;;;9.20;99.90;;;;;;5045640;28;20091;-80
2024/04/03 08:00:08;;;;;;;27.13;14.77;;;9.30;99.90;;;;;;5055433;28;20096;-84
2024/04/03 08:02:37;;;;;;;25.05;14.27;;;9.20;99.90;;;;;;5049637;28;20045;-83
2024/04/03 08:05:15;;;;;;;27.90;15.10;;;9.80;99.90;;;;;;5074742;28;20053;-81
2024/04/03 08:07:43;;;;;;;27.05;15.60;;;9.30;99.90;;;;;;5061561;28;20045;-81
2024/04/03 08:10:10;;;;;;;27.60;14.80;;;9.30;99.90;;;;;;5064421;28;20050;-82
2024/04/03 08:12:37;;;;;;;23.85;14.02;;;9.30;99.90;;;;;;5034669;28;20042;-82
2024/04/03 08:15:05;;;;;;;21.80;13.38;;;9.30;99.90;;;;;;5054435;28;20042;-82
2024/04/03 08:17:32;;;;;;;22.70;13.38;;;9.30;99.90;;;;;;5056299;28;20077;-81
2024/04/03 08:19:58;;;;;;;23.45;12.52;;;9.30;99.90;;;;;;5059486;28;20060;-82
2024/04/03 08:22:24;;;;;;;23.05;12.27;;;9.30;99.90;;;;;;5066578;28;20116;-82
2024/04/03 08:24:51;;;;;;;22.08;12.77;;;9.40;99.90;;;;;;5053171;28;20053;-81
2024/04/03 08:27:18;;;;;;;26.05;13.65;;;9.30;99.90;;;;;;5074053;28;20072;-84
2024/04/03 08:29:45;;;;;;;20.73;12.13;;;9.30;99.90;;;;;;5068030;28;20045;-81
2024/04/03 08:32:10;;;;;;;26.52;12.13;;;9.30;99.90;;;;;;5068992;28;20056;-81
2024/04/03 08:34:37;;;;;;;20.23;12.20;;;9.30;99.90;;;;;;5044065;28;20033;-80
2024/04/03 08:37:06;;;;;;;22.13;12.95;;;9.60;99.90;;;;;;5045021;28;20110;-81
2024/04/03 08:39:32;;;;;;;20.92;12.13;;;9.30;99.90;;;;;;5058239;28;20047;-81
2024/04/03 08:42:00;;;;;;;17.08;11.07;;;9.40;99.90;;;;;;5043223;28;20042;-81
2024/04/03 08:44:31;;;;;;;23.00;11.95;;;9.30;99.90;;;;;;5048756;28;20064;-83
2024/04/03 08:46:58;;;;;;;19.30;11.30;;;9.40;99.90;;;;;;5059708;28;20577;-81
2024/04/03 08:49:30;;;;;;;21.10;11.50;;;9.50;99.90;;;;;;5045629;28;20046;-83
2024/04/03 08:52:03;;;;;;;21.05;12.05;;;9.50;99.90;;;;;;5060809;28;20033;-83
2024/04/03 08:54:29;;;;;;;16.40;9.90;;;9.60;99.90;;;;;;5043659;28;20144;-83
2024/04/03 08:56:57;;;;;;;14.05;8.73;;;9.60;99.90;;;;;;5029786;28;20079;-82
2024/04/03 08:59:23;;;;;;;13.98;9.02;;;9.60;99.90;;;;;;5034176;28;20071;-82
2024/04/03 09:01:50;;;;;;;15.55;9.00;;;9.80;99.90;;;;;;5052427;28;20095;-82
2024/04/03 09:04:21;;;;;;;13.85;7.90;;;9.80;99.90;;;;;;5033257;28;20469;-82
2024/04/03 09:06:47;;;;;;;12.00;7.20;;;10.10;99.90;;;;;;5042201;28;20440;-83
2024/04/03 09:09:24;;;;;;;13.80;7.80;;;10.00;99.90;;;;;;5055695;28;20048;-83
2024/04/03 09:11:51;;;;;;;11.55;7.55;;;10.00;99.90;;;;;;5031383;28;20045;-82
2024/04/03 09:14:20;;;;;;;10.73;7.60;;;10.00;99.90;;;;;;5053667;28;20093;-83
2024/04/03 09:16:46;;;;;;;11.02;7.45;;;10.00;99.90;;;;;;5030082;28;20045;-82
2024/04/03 09:19:13;;;;;;;13.27;7.80;;;10.00;99.90;;;;;;5053924;28;20052;-84
2024/04/03 09:21:39;;;;;;;11.93;6.97;;;10.00;99.90;;;;;;5029312;28;20686;-82
2024/04/03 09:24:04;;;;;;;12.88;7.90;;;10.10;99.90;;;;;;5046221;28;20045;-85
2024/04/03 09:26:30;;;;;;;14.52;7.95;;;10.10;99.90;;;;;;5046607;28;20049;-84
2024/04/03 09:28:59;;;;;;;12.68;7.88;;;10.70;99.90;;;;;;5052217;28;20042;-81
2024/04/03 09:31:25;;;;;;;11.95;7.03;;;10.30;99.90;;;;;;5049748;28;20072;-86
2024/04/03 09:33:52;;;;;;;11.23;7.80;;;10.30;99.90;;;;;;5043134;28;20030;-85
2024/04/03 09:36:19;;;;;;;16.40;8.38;;;10.30;99.90;;;;;;5043775;28;20069;-85
2024/04/03 09:38:45;;;;;;;12.70;7.72;;;10.30;99.90;;;;;;5050741;28;20387;-83
2024/04/03 09:41:13;;;;;;;11.57;7.32;;;11.20;99.90;;;;;;5033879;28;20065;-83
2024/04/03 09:43:43;;;;;;;12.57;7.88;;;10.40;99.90;;;;;;5050563;28;20064;-82
2024/04/03 09:46:11;;;;;;;14.30;8.07;;;10.50;99.90;;;;;;5040790;28;20781;-82
2024/04/03 09:48:40;;;;;;;11.98;6.50;;;10.40;99.90;;;;;;5053816;28;20131;-84
2024/04/03 09:51:06;;;;;;;10.30;6.30;;;10.40;99.90;;;;;;5051095;28;20129;-82
2024/04/03 09:53:32;;;;;;;9.15;6.57;;;10.40;99.90;;;;;;5032558;28;20030;-84
2024/04/03 09:55:58;;;;;;;12.43;6.63;;;10.30;99.90;;;;;;5063512;28;20120;-82
2024/04/03 09:58:27;;;;;;;10.30;6.40;;;10.30;99.90;;;;;;5035301;28;20037;-83
2024/04/03 10:01:04;;;;;;;13.02;6.18;;;10.30;99.90;;;;;;5042216;28;20092;-83
2024/04/03 10:03:32;;;;;;;9.70;6.35;;;10.30;99.90;;;;;;5080388;28;20119;-86
2024/04/03 10:06:12;;;;;;;11.82;6.53;;;10.30;99.90;;;;;;5060131;28;20033;-85
2024/04/03 10:08:46;;;;;;;7.90;5.80;;;10.30;99.90;;;;;;5063292;28;20044;-84
2024/04/03 10:11:18;;;;;;;10.77;5.97;;;10.30;99.90;;;;;;5064127;28;20097;-82
2024/04/03 10:13:47;;;;;;;8.52;4.93;;;10.30;99.90;;;;;;5026596;28;20041;-82
2024/04/03 10:16:15;;;;;;;8.25;4.90;;;10.20;99.90;;;;;;5046617;28;20037;-83
2024/04/03 10:18:47;;;;;;;8.57;5.40;;;10.30;99.90;;;;;;5049220;28;20041;-82
2024/04/03 10:21:13;;;;;;;6.05;4.07;;;10.30;99.90;;;;;;5062889;28;20040;-82
2024/04/03 10:23:50;;;;;;;7.40;3.88;;;10.30;99.90;;;;;;5044316;28;20115;-82
2024/04/03 10:26:18;;;;;;;6.53;4.00;;;10.30;99.90;;;;;;5046497;28;20440;-84
2024/04/03 10:28:45;;;;;;;7.25;3.67;;;10.40;99.90;;;;;;5052788;28;20058;-84
2024/04/03 10:31:16;;;;;;;7.15;3.70;;;10.40;99.90;;;;;;5050176;28;20045;-83
2024/04/03 10:33:42;;;;;;;5.78;3.63;;;11.00;99.90;;;;;;5067377;28;20029;-84
2024/04/03 10:36:09;;;;;;;7.85;4.15;;;10.40;99.90;;;;;;5063044;28;20037;-84
2024/04/03 10:38:36;;;;;;;6.65;3.67;;;10.50;99.90;;;;;;5033086;28;20045;-83
2024/04/03 10:41:02;;;;;;;7.70;3.10;;;10.50;99.90;;;;;;5062110;28;20038;-82
2024/04/03 10:43:27;;;;;;;4.95;2.42;;;10.40;99.90;;;;;;5061988;28;21198;-86
2024/04/03 10:45:53;;;;;;;8.07;3.05;;;10.30;99.90;;;;;;5048526;28;20037;-84
2024/04/03 10:48:24;;;;;;;8.45;3.40;;;10.30;99.90;;;;;;5065568;28;20109;-83
2024/04/03 10:50:50;;;;;;;8.98;4.38;;;10.30;99.90;;;;;;5047696;28;20017;-84
2024/04/03 10:53:16;;;;;;;6.80;4.50;;;10.30;99.90;;;;;;5054097;28;20040;-82
2024/04/03 10:55:42;;;;;;;8.63;4.88;;;10.40;99.90;;;;;;5059323;28;20037;-83
2024/04/03 10:58:09;;;;;;;7.78;4.55;;;10.40;99.90;;;;;;5047072;28;20041;-83
2024/04/03 11:00:37;;;;;;;9.98;5.57;;;10.50;99.90;;;;;;5060758;28;20056;-82
2024/04/03 11:03:04;;;;;;;10.63;5.63;;;10.60;99.90;;;;;;5079399;28;20045;-84
2024/04/03 11:05:31;;;;;;;7.43;5.38;;;10.70;99.90;;;;;;5072261;28;20105;-83
2024/04/03 11:07:57;;;;;;;8.63;5.55;;;10.80;99.90;;;;;;5045320;28;20060;-82
2024/04/03 11:10:24;;;;;;;10.95;5.32;;;10.80;99.90;;;;;;5048438;28;20033;-82
2024/04/03 11:12:49;;;;;;;9.75;5.60;;;10.80;99.90;;;;;;5079989;28;20052;-86
2024/04/03 11:15:22;;;;;;;10.98;5.40;;;10.80;99.90;;;;;;5051973;28;20053;-83
2024/04/03 11:17:48;;;;;;;8.20;5.32;;;10.90;99.90;;;;;;5061333;28;20045;-83
2024/04/03 11:20:14;;;;;;;9.13;5.25;;;10.70;99.90;;;;;;5039346;28;20056;-81
2024/04/03 11:22:39;;;;;;;7.95;5.80;;;10.70;99.90;;;;;;5040054;28;20041;-81
2024/04/03 11:25:12;;;;;;;9.40;5.95;;;10.70;99.90;;;;;;5039707;28;20052;-82
2024/04/03 11:27:40;;;;;;;10.88;5.85;;;10.70;99.90;;;;;;5044832;28;20105;-81
2024/04/03 11:30:07;;;;;;;9.43;5.43;;;10.80;99.90;;;;;;5078447;28;20037;-83
2024/04/03 11:32:33;;;;;;;9.73;5.50;;;10.80;99.90;;;;;;5076500;28;20049;-82
2024/04/03 11:34:59;;;;;;;12.45;5.45;;;10.70;99.90;;;;;;5035760;28;20136;-81
2024/04/03 11:37:25;;;;;;;8.30;5.03;;;10.90;99.90;;;;;;5041154;28;20132;-82
2024/04/03 11:39:51;;;;;;;10.18;5.85;;;10.70;99.90;;;;;;5041594;28;20152;-82
2024/04/03 11:42:17;;;;;;;9.27;5.70;;;10.70;99.90;;;;;;5037776;28;20037;-82
2024/04/03 11:44:43;;;;;;;10.57;6.13;;;10.60;99.90;;;;;;5037414;28;20033;-81
2024/04/03 11:47:08;;;;;;;9.43;6.10;;;10.70;99.90;;;;;;5036235;28;20046;-82
2024/04/03 11:49:34;;;;;;;11.00;5.63;;;10.60;99.90;;;;;;5022588;28;20045;-81
2024/04/03 11:52:00;;;;;;;8.73;6.55;;;10.60;99.90;;;;;;5034957;28;20033;-83
2024/04/03 11:54:25;;;;;;;9.38;5.57;;;10.60;99.90;;;;;;5036807;28;20141;-85
2024/04/03 11:56:54;;;;;;;11.65;6.32;;;11.30;99.90;;;;;;5040605;28;20037;-83
2024/04/03 11:59:20;;;;;;;9.80;6.72;;;10.50;99.90;;;;;;5037798;28;20072;-81
2024/04/03 12:01:45;;;;;;;13.20;6.75;;;10.50;99.90;;;;;;5051898;28;20501;-82
2024/04/03 12:04:11;;;;;;;10.95;7.28;;;10.50;99.90;;;;;;5055477;28;20049;-83
2024/04/03 12:06:36;;;;;;;9.20;6.97;;;10.50;99.90;;;;;;5056536;28;20044;-80
2024/04/03 12:09:04;;;;;;;11.27;7.55;;;10.50;99.90;;;;;;5040442;28;20115;-83
2024/04/03 12:11:29;;;;;;;12.98;7.53;;;10.50;99.90;;;;;;5054803;28;20036;-83
2024/04/03 12:13:55;;;;;;;9.63;7.32;;;10.60;99.90;;;;;;5033973;28;20081;-84
2024/04/03 12:16:21;;;;;;;8.95;6.63;;;11.50;99.90;;;;;;5074505;28;20041;-83
2024/04/03 12:19:01;;;;;;;12.93;7.95;;;10.50;99.90;;;;;;5041087;28;20042;-82
2024/04/03 12:21:27;;;;;;;9.82;6.50;;;10.50;99.90;;;;;;5041281;28;20030;-83
2024/04/03 12:23:53;;;;;;;11.23;5.70;;;10.60;99.90;;;;;;5077955;28;20091;-83
2024/04/03 12:26:19;;;;;;;9.77;6.03;;;11.80;99.90;;;;;;5047249;28;20045;-86
2024/04/03 12:28:49;;;;;;;7.15;4.55;;;10.50;99.90;;;;;;5039512;28;20136;-86
2024/04/03 12:31:18;;;;;;;6.47;4.57;;;10.50;99.90;;;;;;5045757;28;20423;-84
2024/04/03 12:33:44;;;;;;;11.05;5.53;;;10.70;99.90;;;;;;5080234;28;20378;-82
2024/04/03 12:36:10;;;;;;;11.15;5.93;;;10.40;99.90;;;;;;5060115;28;20064;-82
2024/04/03 12:38:35;;;;;;;7.72;5.70;;;10.50;99.90;;;;;;5032422;28;20500;-82
2024/04/03 12:41:01;;;;;;;9.02;6.10;;;10.50;99.90;;;;;;5067987;28;20037;-82
2024/04/03 12:43:27;;;;;;;11.23;5.53;;;10.60;99.90;;;;;;5024006;28;20079;-84